Fieldale, Virginia
Current Conditions -  °F | °C
As of 6:55 AM on Monday 22 Dec 2014 (Local Time) from KMTV Reporting Station
Moderate Rain Moderate Rain  
Wind Chill: 32°   Ceiling: 2400
Heat Index: 36°   Visibility: 5mi
Dew Point: 35°   Wind: 5mph
Humidity: 98%   Direction: 60°ENE
Pressure: 30.2"   Gusts: NA
Location:  36.7°N, 79.94°W
Report Text: KMTV 221155Z AUTO 06004KT 5SM RA BKN024 OVC031 02/02 A3020 RMK AO2 60002 70002 T00200017 10043 20020
Loading
Personal Weather Stations






























Interactive Weather Map New forecast layout! Learn more

10-Day Weather Forecast

Advertisements
Track Severe Weather on mobile